sensor_id;sensor_type;location;lat;lon;timestamp;pressure;altitude;pressure_sealevel;temperature;humidity
68807;BME280;55800;54.272;18.558;2023-02-12T00:00:43;102521.69;;;3.09;73.05
68807;BME280;55800;54.272;18.558;2023-02-12T00:03:33;102513.72;;;3.08;72.91
68807;BME280;55800;54.272;18.558;2023-02-12T00:06:03;102524.28;;;3.06;72.99
68807;BME280;55800;54.272;18.558;2023-02-12T00:08:32;102528.56;;;3.01;72.86
68807;BME280;55800;54.272;18.558;2023-02-12T00:11:07;102523.25;;;2.98;73.29
68807;BME280;55800;54.272;18.558;2023-02-12T00:13:37;102532.00;;;2.97;73.65
68807;BME280;55800;54.272;18.558;2023-02-12T00:16:12;102539.91;;;2.94;73.26
68807;BME280;55800;54.272;18.558;2023-02-12T00:18:42;102546.09;;;2.96;73.54
68807;BME280;55800;54.272;18.558;2023-02-12T00:21:12;102539.91;;;2.96;73.14
68807;BME280;55800;54.272;18.558;2023-02-12T00:23:42;102546.09;;;2.96;73.34
68807;BME280;55800;54.272;18.558;2023-02-12T00:26:13;102546.94;;;2.94;73.39
68807;BME280;55800;54.272;18.558;2023-02-12T00:28:46;102554.75;;;2.89;73.65
68807;BME280;55800;54.272;18.558;2023-02-12T00:31:19;102554.72;;;2.88;73.58
68807;BME280;55800;54.272;18.558;2023-02-12T00:33:49;102563.56;;;2.88;73.66
68807;BME280;55800;54.272;18.558;2023-02-12T00:36:20;102559.97;;;2.86;73.55
68807;BME280;55800;54.272;18.558;2023-02-12T00:38:51;102569.75;;;2.90;73.33
68807;BME280;55800;54.272;18.558;2023-02-12T00:41:21;102572.41;;;2.90;73.25
68807;BME280;55800;54.272;18.558;2023-02-12T00:43:51;102574.13;;;2.88;73.46
68807;BME280;55800;54.272;18.558;2023-02-12T00:46:22;102566.13;;;2.85;73.69
68807;BME280;55800;54.272;18.558;2023-02-12T00:48:52;102567.84;;;2.83;73.69
68807;BME280;55800;54.272;18.558;2023-02-12T00:51:21;102574.06;;;2.85;73.65
68807;BME280;55800;54.272;18.558;2023-02-12T00:53:51;102575.81;;;2.86;73.64
68807;BME280;55800;54.272;18.558;2023-02-12T00:56:20;102579.34;;;2.85;73.58
68807;BME280;55800;54.272;18.558;2023-02-12T00:58:50;102578.38;;;2.82;73.63
68807;BME280;55800;54.272;18.558;2023-02-12T01:01:19;102578.34;;;2.80;73.81
68807;BME280;55800;54.272;18.558;2023-02-12T01:03:50;102586.22;;;2.79;73.77
68807;BME280;55800;54.272;18.558;2023-02-12T01:06:19;102577.41;;;2.78;73.68
68807;BME280;55800;54.272;18.558;2023-02-12T01:08:50;102585.34;;;2.78;73.59
68807;BME280;55800;54.272;18.558;2023-02-12T01:11:19;102584.47;;;2.78;73.66
68807;BME280;55800;54.272;18.558;2023-02-12T01:13:49;102578.28;;;2.77;73.53
68807;BME280;55800;54.272;18.558;2023-02-12T01:16:20;102599.38;;;2.76;73.67
68807;BME280;55800;54.272;18.558;2023-02-12T01:18:52;102597.69;;;2.78;73.39
68807;BME280;55800;54.272;18.558;2023-02-12T01:21:24;102605.53;;;2.75;73.43
68807;BME280;55800;54.272;18.558;2023-02-12T01:23:55;102595.78;;;2.74;73.31
68807;BME280;55800;54.272;18.558;2023-02-12T01:26:27;102604.63;;;2.74;73.22
68807;BME280;55800;54.272;18.558;2023-02-12T01:28:59;102600.25;;;2.75;73.02
68807;BME280;55800;54.272;18.558;2023-02-12T01:31:31;102604.63;;;2.74;72.90
68807;BME280;55800;54.272;18.558;2023-02-12T01:34:04;102613.44;;;2.75;72.61
68807;BME280;55800;54.272;18.558;2023-02-12T01:36:34;102617.81;;;2.74;72.54
68807;BME280;55800;54.272;18.558;2023-02-12T01:39:04;102616.00;;;2.72;72.38
68807;BME280;55800;54.272;18.558;2023-02-12T01:41:36;102614.97;;;2.65;72.34
68807;BME280;55800;54.272;18.558;2023-02-12T01:44:13;102622.84;;;2.62;72.10
68807;BME280;55800;54.272;18.558;2023-02-12T01:46:44;102631.56;;;2.58;72.07
68807;BME280;55800;54.272;18.558;2023-02-12T01:49:19;102633.16;;;2.52;72.21
68807;BME280;55800;54.272;18.558;2023-02-12T01:51:54;102633.06;;;2.47;72.10
68807;BME280;55800;54.272;18.558;2023-02-12T01:54:25;102640.06;;;2.45;72.12
68807;BME280;55800;54.272;18.558;2023-02-12T01:56:54;102632.91;;;2.40;72.05
68807;BME280;55800;54.272;18.558;2023-02-12T01:59:24;102632.66;;;2.29;72.37
68807;BME280;55800;54.272;18.558;2023-02-12T02:01:54;102629.91;;;2.26;72.31
68807;BME280;55800;54.272;18.558;2023-02-12T02:04:30;102636.03;;;2.25;72.14
68807;BME280;55800;54.272;18.558;2023-02-12T02:07:02;102642.16;;;2.22;72.07
68807;BME280;55800;54.272;18.558;2023-02-12T02:09:35;102647.25;;;2.16;72.08
68807;BME280;55800;54.272;18.558;2023-02-12T02:12:06;102646.31;;;2.13;71.79
68807;BME280;55800;54.272;18.558;2023-02-12T02:14:58;102651.44;;;2.07;71.76
68807;BME280;55800;54.272;18.558;2023-02-12T02:17:50;102645.91;;;1.98;71.71
68807;BME280;55800;54.272;18.558;2023-02-12T02:20:48;102646.66;;;1.92;71.79
68807;BME280;55800;54.272;18.558;2023-02-12T02:23:44;102651.72;;;1.85;71.62
68807;BME280;55800;54.272;18.558;2023-02-12T02:26:53;102660.13;;;1.70;71.84
68807;BME280;55800;54.272;18.558;2023-02-12T02:29:41;102665.22;;;1.63;72.08
68807;BME280;55800;54.272;18.558;2023-02-12T02:32:21;102654.53;;;1.58;71.66
68807;BME280;55800;54.272;18.558;2023-02-12T02:34:57;102658.78;;;1.53;71.88
68807;BME280;55800;54.272;18.558;2023-02-12T02:37:33;102667.44;;;1.47;71.70
68807;BME280;55800;54.272;18.558;2023-02-12T02:40:10;102662.84;;;1.40;71.54
68807;BME280;55800;54.272;18.558;2023-02-12T02:42:43;102664.41;;;1.34;71.83
68807;BME280;55800;54.272;18.558;2023-02-12T02:45:17;102656.28;;;1.26;71.77
68807;BME280;55800;54.272;18.558;2023-02-12T02:47:55;102671.94;;;1.20;71.59
68807;BME280;55800;54.272;18.558;2023-02-12T02:50:28;102663.00;;;1.15;71.66
68807;BME280;55800;54.272;18.558;2023-02-12T02:53:03;102667.25;;;1.10;71.62
68807;BME280;55800;54.272;18.558;2023-02-12T02:55:37;102678.53;;;1.06;71.42
68807;BME280;55800;54.272;18.558;2023-02-12T02:58:12;102672.91;;;0.94;71.97
68807;BME280;55800;54.272;18.558;2023-02-12T03:00:46;102675.41;;;0.90;71.83
68807;BME280;55800;54.272;18.558;2023-02-12T03:03:22;102682.22;;;0.83;71.66
68807;BME280;55800;54.272;18.558;2023-02-12T03:05:58;102675.94;;;0.78;71.50
68807;BME280;55800;54.272;18.558;2023-02-12T03:08:33;102680.19;;;0.74;71.55
68807;BME280;55800;54.272;18.558;2023-02-12T03:11:09;102693.88;;;0.63;72.17
68807;BME280;55800;54.272;18.558;2023-02-12T03:13:42;102698.22;;;0.61;71.70
68807;BME280;55800;54.272;18.558;2023-02-12T03:16:19;102699.75;;;0.54;71.69
68807;BME280;55800;54.272;18.558;2023-02-12T03:18:53;102711.94;;;0.51;71.75
68807;BME280;55800;54.272;18.558;2023-02-12T03:21:27;102713.47;;;0.44;71.84
68807;BME280;55800;54.272;18.558;2023-02-12T03:24:01;102706.06;;;0.33;72.12
68807;BME280;55800;54.272;18.558;2023-02-12T03:26:39;102719.75;;;0.23;72.48
68807;BME280;55800;54.272;18.558;2023-02-12T03:29:12;102723.16;;;0.20;72.46
68807;BME280;55800;54.272;18.558;2023-02-12T03:31:58;102724.81;;;0.17;72.39
68807;BME280;55800;54.272;18.558;2023-02-12T03:34:38;102729.94;;;0.14;71.97
68807;BME280;55800;54.272;18.558;2023-02-12T03:37:11;102735.22;;;0.14;71.72
68807;BME280;55800;54.272;18.558;2023-02-12T03:39:48;102743.88;;;0.11;71.52
68807;BME280;55800;54.272;18.558;2023-02-12T03:42:23;102741.09;;;0.07;71.32
68807;BME280;55800;54.272;18.558;2023-02-12T03:44:58;102749.69;;;0.01;71.59
68807;BME280;55800;54.272;18.558;2023-02-12T03:47:41;102752.16;;;-0.04;71.82
68807;BME280;55800;54.272;18.558;2023-02-12T03:50:17;102763.28;;;-0.11;72.17
68807;BME280;55800;54.272;18.558;2023-02-12T03:52:50;102758.75;;;-0.15;71.92
68807;BME280;55800;54.272;18.558;2023-02-12T03:55:19;102763.78;;;-0.21;72.22
68807;BME280;55800;54.272;18.558;2023-02-12T03:57:51;102758.38;;;-0.25;72.31
68807;BME280;55800;54.272;18.558;2023-02-12T04:00:23;102762.63;;;-0.29;72.19
68807;BME280;55800;54.272;18.558;2023-02-12T04:02:54;102762.69;;;-0.27;72.27
68807;BME280;55800;54.272;18.558;2023-02-12T04:05:26;102761.69;;;-0.31;71.84
68807;BME280;55800;54.272;18.558;2023-02-12T04:07:56;102759.06;;;-0.31;71.86
68807;BME280;55800;54.272;18.558;2023-02-12T04:10:29;102759.75;;;-0.36;72.34
68807;BME280;55800;54.272;18.558;2023-02-12T04:13:06;102763.16;;;-0.39;71.95
68807;BME280;55800;54.272;18.558;2023-02-12T04:16:00;102770.09;;;-0.41;71.80
68807;BME280;55800;54.272;18.558;2023-02-12T04:18:37;102763.03;;;-0.42;71.69
68807;BME280;55800;54.272;18.558;2023-02-12T04:21:15;102768.19;;;-0.45;71.73
68807;BME280;55800;54.272;18.558;2023-02-12T04:23:54;102774.03;;;-0.52;72.40
68807;BME280;55800;54.272;18.558;2023-02-12T04:26:33;102779.13;;;-0.56;72.19
68807;BME280;55800;54.272;18.558;2023-02-12T04:29:14;102772.97;;;-0.57;72.01
68807;BME280;55800;54.272;18.558;2023-02-12T04:31:48;102776.50;;;-0.56;71.99
68807;BME280;55800;54.272;18.558;2023-02-12T04:34:23;102776.44;;;-0.58;71.55
68807;BME280;55800;54.272;18.558;2023-02-12T04:37:00;102775.50;;;-0.60;71.64
68807;BME280;55800;54.272;18.558;2023-02-12T04:39:35;102780.63;;;-0.63;71.44
68807;BME280;55800;54.272;18.558;2023-02-12T04:42:05;102784.00;;;-0.65;71.67
68807;BME280;55800;54.272;18.558;2023-02-12T04:44:38;102782.88;;;-0.72;71.83
68807;BME280;55800;54.272;18.558;2023-02-12T04:47:10;102787.91;;;-0.78;72.08
68807;BME280;55800;54.272;18.558;2023-02-12T04:49:40;102794.97;;;-0.77;71.65
68807;BME280;55800;54.272;18.558;2023-02-12T04:52:10;102787.91;;;-0.78;71.72
68807;BME280;55800;54.272;18.558;2023-02-12T04:54:40;102801.91;;;-0.79;71.54
68807;BME280;55800;54.272;18.558;2023-02-12T04:57:09;102800.03;;;-0.82;71.48
68807;BME280;55800;54.272;18.558;2023-02-12T04:59:38;102797.22;;;-0.86;71.38
68807;BME280;55800;54.272;18.558;2023-02-12T05:02:08;102783.09;;;-0.90;71.34
68807;BME280;55800;54.272;18.558;2023-02-12T05:04:37;102792.50;;;-0.95;71.63
68807;BME280;55800;54.272;18.558;2023-02-12T05:07:06;102796.81;;;-0.97;71.80
68807;BME280;55800;54.272;18.558;2023-02-12T05:09:37;102792.22;;;-1.02;72.40
68807;BME280;55800;54.272;18.558;2023-02-12T05:12:07;102795.56;;;-1.06;72.86
68807;BME280;55800;54.272;18.558;2023-02-12T05:14:36;102791.00;;;-1.10;72.74
68807;BME280;55800;54.272;18.558;2023-02-12T05:17:06;102793.63;;;-1.10;72.29
68807;BME280;55800;54.272;18.558;2023-02-12T05:19:35;102800.69;;;-1.09;71.90
68807;BME280;55800;54.272;18.558;2023-02-12T05:22:04;102802.22;;;-1.14;72.43
68807;BME280;55800;54.272;18.558;2023-02-12T05:24:35;102800.53;;;-1.12;71.73
68807;BME280;55800;54.272;18.558;2023-02-12T05:27:05;102812.72;;;-1.14;71.78
68807;BME280;55800;54.272;18.558;2023-02-12T05:29:36;102803.88;;;-1.16;71.91
68807;BME280;55800;54.272;18.558;2023-02-12T05:32:06;102805.56;;;-1.18;71.99
68807;BME280;55800;54.272;18.558;2023-02-12T05:34:35;102805.31;;;-1.24;72.29
68807;BME280;55800;54.272;18.558;2023-02-12T05:37:05;102793.13;;;-1.22;71.88
68807;BME280;55800;54.272;18.558;2023-02-12T05:39:35;102800.06;;;-1.24;72.29
68807;BME280;55800;54.272;18.558;2023-02-12T05:42:05;102811.22;;;-1.30;72.67
68807;BME280;55800;54.272;18.558;2023-02-12T05:44:34;102811.94;;;-1.34;72.92
68807;BME280;55800;54.272;18.558;2023-02-12T05:47:04;102820.56;;;-1.36;72.39
68807;BME280;55800;54.272;18.558;2023-02-12T05:49:33;102818.94;;;-1.33;72.31
68807;BME280;55800;54.272;18.558;2023-02-12T05:52:02;102826.56;;;-1.39;72.60
68807;BME280;55800;54.272;18.558;2023-02-12T05:54:32;102824.13;;;-1.34;72.44
68807;BME280;55800;54.272;18.558;2023-02-12T05:57:03;102829.25;;;-1.37;72.27
68807;BME280;55800;54.272;18.558;2023-02-12T05:59:34;102827.53;;;-1.37;72.08
68807;BME280;55800;54.272;18.558;2023-02-12T06:02:03;102831.88;;;-1.37;71.91
68807;BME280;55800;54.272;18.558;2023-02-12T06:04:33;102825.66;;;-1.39;71.80
68807;BME280;55800;54.272;18.558;2023-02-12T06:07:02;102841.41;;;-1.39;71.86
68807;BME280;55800;54.272;18.558;2023-02-12T06:09:31;102838.78;;;-1.39;71.96
68807;BME280;55800;54.272;18.558;2023-02-12T06:12:03;102849.16;;;-1.42;72.22
68807;BME280;55800;54.272;18.558;2023-02-12T06:14:32;102860.47;;;-1.43;72.05
68807;BME280;55800;54.272;18.558;2023-02-12T06:17:02;102851.69;;;-1.44;71.98
68807;BME280;55800;54.272;18.558;2023-02-12T06:19:31;102853.47;;;-1.44;72.18
68807;BME280;55800;54.272;18.558;2023-02-12T06:22:00;102857.75;;;-1.46;72.95
68807;BME280;55800;54.272;18.558;2023-02-12T06:24:30;102861.88;;;-1.51;73.30
68807;BME280;55800;54.272;18.558;2023-02-12T06:26:59;102860.09;;;-1.52;74.45
68807;BME280;55800;54.272;18.558;2023-02-12T06:29:30;102861.88;;;-1.51;74.36
68807;BME280;55800;54.272;18.558;2023-02-12T06:32:00;102877.63;;;-1.51;73.47
68807;BME280;55800;54.272;18.558;2023-02-12T06:34:29;102875.81;;;-1.52;73.73
68807;BME280;55800;54.272;18.558;2023-02-12T06:36:58;102868.59;;;-1.58;74.06
68807;BME280;55800;54.272;18.558;2023-02-12T06:39:28;102878.38;;;-1.54;74.19
68807;BME280;55800;54.272;18.558;2023-02-12T06:41:57;102874.00;;;-1.55;74.09
68807;BME280;55800;54.272;18.558;2023-02-12T06:44:26;102879.28;;;-1.53;74.01
68807;BME280;55800;54.272;18.558;2023-02-12T06:46:57;102873.91;;;-1.57;73.67
68807;BME280;55800;54.272;18.558;2023-02-12T06:49:26;102877.22;;;-1.61;74.02
68807;BME280;55800;54.272;18.558;2023-02-12T06:51:56;102881.56;;;-1.61;73.65
68807;BME280;55800;54.272;18.558;2023-02-12T06:54:25;102880.69;;;-1.62;73.77
68807;BME280;55800;54.272;18.558;2023-02-12T06:56:54;102883.31;;;-1.62;73.46
68807;BME280;55800;54.272;18.558;2023-02-12T06:59:24;102886.06;;;-1.59;73.54
68807;BME280;55800;54.272;18.558;2023-02-12T07:01:53;102878.28;;;-1.57;73.50
68807;BME280;55800;54.272;18.558;2023-02-12T07:04:23;102892.34;;;-1.55;73.49
68807;BME280;55800;54.272;18.558;2023-02-12T07:06:53;102885.34;;;-1.54;73.50
68807;BME280;55800;54.272;18.558;2023-02-12T07:09:22;102881.06;;;-1.52;73.53
68807;BME280;55800;54.272;18.558;2023-02-12T07:11:52;102882.13;;;-1.49;73.58
68807;BME280;55800;54.272;18.558;2023-02-12T07:14:23;102871.72;;;-1.46;73.66
68807;BME280;55800;54.272;18.558;2023-02-12T07:16:53;102877.19;;;-1.41;73.65
68807;BME280;55800;54.272;18.558;2023-02-12T07:19:25;102863.31;;;-1.39;73.65
68807;BME280;55800;54.272;18.558;2023-02-12T07:21:55;102864.31;;;-1.35;73.66
68807;BME280;55800;54.272;18.558;2023-02-12T07:24:24;102869.75;;;-1.31;73.57
68807;BME280;55800;54.272;18.558;2023-02-12T07:26:54;102862.09;;;-1.26;73.67
68807;BME280;55800;54.272;18.558;2023-02-12T07:29:23;102872.84;;;-1.20;73.76
68807;BME280;55800;54.272;18.558;2023-02-12T07:31:52;102872.25;;;-1.13;74.08
68807;BME280;55800;54.272;18.558;2023-02-12T07:34:22;102875.19;;;-1.06;74.70
68807;BME280;55800;54.272;18.558;2023-02-12T07:36:52;102876.34;;;-0.99;74.08
68807;BME280;55800;54.272;18.558;2023-02-12T07:39:22;102884.53;;;-0.92;73.84
68807;BME280;55800;54.272;18.558;2023-02-12T07:41:51;102883.88;;;-0.86;73.77
68807;BME280;55800;54.272;18.558;2023-02-12T07:44:20;102892.97;;;-0.78;73.93
68807;BME280;55800;54.272;18.558;2023-02-12T07:46:50;102882.69;;;-0.72;73.98
68807;BME280;55800;54.272;18.558;2023-02-12T07:49:20;102872.47;;;-0.66;73.78
68807;BME280;55800;54.272;18.558;2023-02-12T07:51:52;102866.72;;;-0.56;74.41
68807;BME280;55800;54.272;18.558;2023-02-12T07:54:23;102866.19;;;-0.47;74.37
68807;BME280;55800;54.272;18.558;2023-02-12T07:56:53;102860.56;;;-0.34;74.89
68807;BME280;55800;54.272;18.558;2023-02-12T07:59:22;102859.94;;;-0.27;74.57
68807;BME280;55800;54.272;18.558;2023-02-12T08:01:53;102851.63;;;-0.16;74.72
68807;BME280;55800;54.272;18.558;2023-02-12T08:04:24;102853.69;;;-0.07;75.14
68807;BME280;55800;54.272;18.558;2023-02-12T08:06:55;102852.28;;;0.03;75.14
68807;BME280;55800;54.272;18.558;2023-02-12T08:09:27;102857.09;;;0.14;75.09
68807;BME280;55800;54.272;18.558;2023-02-12T08:11:58;102853.97;;;0.24;75.01
68807;BME280;55800;54.272;18.558;2023-02-12T08:14:27;102856.88;;;0.32;74.75
68807;BME280;55800;54.272;18.558;2023-02-12T08:16:56;102858.03;;;0.40;74.81
68807;BME280;55800;54.272;18.558;2023-02-12T08:19:26;102858.31;;;0.49;75.09
68807;BME280;55800;54.272;18.558;2023-02-12T08:21:57;102867.50;;;0.60;75.08
68807;BME280;55800;54.272;18.558;2023-02-12T08:24:27;102870.44;;;0.69;74.87
68807;BME280;55800;54.272;18.558;2023-02-12T08:26:57;102866.38;;;0.78;75.21
68807;BME280;55800;54.272;18.558;2023-02-12T08:29:28;102871.06;;;0.87;74.86
68807;BME280;55800;54.272;18.558;2023-02-12T08:32:00;102878.44;;;0.97;74.79
68807;BME280;55800;54.272;18.558;2023-02-12T08:34:31;102880.53;;;1.07;75.21
68807;BME280;55800;54.272;18.558;2023-02-12T08:37:04;102880.88;;;1.18;75.61
68807;BME280;55800;54.272;18.558;2023-02-12T08:39:33;102863.72;;;1.30;75.45
68807;BME280;55800;54.272;18.558;2023-02-12T08:42:03;102859.53;;;1.37;74.96
68807;BME280;55800;54.272;18.558;2023-02-12T08:44:32;102859.09;;;1.51;75.57
68807;BME280;55800;54.272;18.558;2023-02-12T08:47:02;102844.53;;;1.64;75.09
68807;BME280;55800;54.272;18.558;2023-02-12T08:49:33;102844.88;;;1.76;75.46
68807;BME280;55800;54.272;18.558;2023-02-12T08:52:04;102845.34;;;1.91;75.47
68807;BME280;55800;54.272;18.558;2023-02-12T08:54:33;102858.00;;;2.03;74.91
68807;BME280;55800;54.272;18.558;2023-02-12T08:57:04;102859.06;;;2.09;75.03
68807;BME280;55800;54.272;18.558;2023-02-12T08:59:33;102860.13;;;2.16;75.17
68807;BME280;55800;54.272;18.558;2023-02-12T09:02:03;102853.16;;;2.18;75.06
68807;BME280;55800;54.272;18.558;2023-02-12T09:04:36;102854.25;;;2.26;75.33
68807;BME280;55800;54.272;18.558;2023-02-12T09:07:07;102857.09;;;2.33;75.32
68807;BME280;55800;54.272;18.558;2023-02-12T09:09:37;102863.41;;;2.38;75.33
68807;BME280;55800;54.272;18.558;2023-02-12T09:12:07;102862.84;;;2.50;75.16
68807;BME280;55800;54.272;18.558;2023-02-12T09:14:36;102865.72;;;2.59;75.15
68807;BME280;55800;54.272;18.558;2023-02-12T09:17:06;102870.34;;;2.68;75.22
68807;BME280;55800;54.272;18.558;2023-02-12T09:19:35;102855.53;;;2.74;75.02
68807;BME280;55800;54.272;18.558;2023-02-12T09:22:06;102842.50;;;2.80;75.20
68807;BME280;55800;54.272;18.558;2023-02-12T09:24:37;102840.09;;;2.89;75.01
68807;BME280;55800;54.272;18.558;2023-02-12T09:27:06;102831.41;;;2.95;75.05
68807;BME280;55800;54.272;18.558;2023-02-12T09:29:35;102844.00;;;3.05;74.38
68807;BME280;55800;54.272;18.558;2023-02-12T09:32:05;102848.50;;;3.09;74.70
68807;BME280;55800;54.272;18.558;2023-02-12T09:34:36;102851.25;;;3.13;74.66
68807;BME280;55800;54.272;18.558;2023-02-12T09:37:07;102850.50;;;3.19;74.33
68807;BME280;55800;54.272;18.558;2023-02-12T09:39:36;102854.31;;;3.30;74.27
68807;BME280;55800;54.272;18.558;2023-02-12T09:45:06;102856.25;;;3.39;74.34
68807;BME280;55800;54.272;18.558;2023-02-12T09:47:45;102844.13;;;3.48;74.23
68807;BME280;55800;54.272;18.558;2023-02-12T09:50:36;102840.66;;;3.51;74.66
68807;BME280;55800;54.272;18.558;2023-02-12T09:53:15;102831.13;;;3.59;74.52
68807;BME280;55800;54.272;18.558;2023-02-12T09:55:45;102839.25;;;3.66;74.61
68807;BME280;55800;54.272;18.558;2023-02-12T09:58:21;102834.13;;;3.74;74.79
68807;BME280;55800;54.272;18.558;2023-02-12T10:00:52;102828.09;;;3.81;75.02
68807;BME280;55800;54.272;18.558;2023-02-12T10:03:22;102837.97;;;3.89;74.87
68807;BME280;55800;54.272;18.558;2023-02-12T10:05:55;102839.94;;;3.98;74.92
68807;BME280;55800;54.272;18.558;2023-02-12T10:11:42;102832.34;;;4.16;74.83
68807;BME280;55800;54.272;18.558;2023-02-12T10:17:12;102828.28;;;4.35;74.71
68807;BME280;55800;54.272;18.558;2023-02-12T10:20:08;102827.50;;;4.40;74.78
68807;BME280;55800;54.272;18.558;2023-02-12T10:22:49;102830.34;;;4.49;74.42
68807;BME280;55800;54.272;18.558;2023-02-12T10:25:31;102817.25;;;4.58;74.42
68807;BME280;55800;54.272;18.558;2023-02-12T10:28:10;102822.69;;;4.66;74.58
68807;BME280;55800;54.272;18.558;2023-02-12T10:30:45;102809.53;;;4.72;74.20
68807;BME280;55800;54.272;18.558;2023-02-12T10:33:20;102805.22;;;4.77;74.55
68807;BME280;55800;54.272;18.558;2023-02-12T10:35:58;102795.59;;;4.84;74.15
68807;BME280;55800;54.272;18.558;2023-02-12T10:38:34;102799.28;;;4.92;74.34
68807;BME280;55800;54.272;18.558;2023-02-12T10:41:06;102794.03;;;4.96;74.46
68807;BME280;55800;54.272;18.558;2023-02-12T10:43:35;102781.72;;;5.01;74.29
68807;BME280;55800;54.272;18.558;2023-02-12T10:46:05;102779.16;;;5.06;74.35
68807;BME280;55800;54.272;18.558;2023-02-12T10:48:37;102776.59;;;5.13;74.41
68807;BME280;55800;54.272;18.558;2023-02-12T10:51:33;102776.72;;;5.19;74.63
68807;BME280;55800;54.272;18.558;2023-02-12T10:54:32;102768.84;;;5.27;74.46
68807;BME280;55800;54.272;18.558;2023-02-12T10:57:23;102770.69;;;5.31;74.22
68807;BME280;55800;54.272;18.558;2023-02-12T10:59:54;102766.34;;;5.36;74.04
68807;BME280;55800;54.272;18.558;2023-02-12T11:02:27;102766.41;;;5.40;74.32
68807;BME280;55800;54.272;18.558;2023-02-12T11:04:58;102772.63;;;5.44;74.02
68807;BME280;55800;54.272;18.558;2023-02-12T11:07:28;102769.97;;;5.44;73.89
68807;BME280;55800;54.272;18.558;2023-02-12T11:10:20;102780.59;;;5.45;73.96
68807;BME280;55800;54.272;18.558;2023-02-12T11:12:54;102779.69;;;5.45;73.28
68807;BME280;55800;54.272;18.558;2023-02-12T11:15:27;102781.50;;;5.46;73.41
68807;BME280;55800;54.272;18.558;2023-02-12T11:18:03;102783.34;;;5.51;73.75
68807;BME280;55800;54.272;18.558;2023-02-12T11:20:38;102780.72;;;5.53;72.54
68807;BME280;55800;54.272;18.558;2023-02-12T11:23:24;102767.53;;;5.61;73.24
68807;BME280;55800;54.272;18.558;2023-02-12T11:25:58;102764.94;;;5.65;73.22
68807;BME280;55800;54.272;18.558;2023-02-12T11:28:30;102762.34;;;5.68;73.26
68807;BME280;55800;54.272;18.558;2023-02-12T11:31:02;102750.00;;;5.73;73.53
68807;BME280;55800;54.272;18.558;2023-02-12T11:33:34;102746.53;;;5.79;73.06
68807;BME280;55800;54.272;18.558;2023-02-12T11:36:11;102748.31;;;5.81;72.34
68807;BME280;55800;54.272;18.558;2023-02-12T11:38:49;102752.84;;;5.87;73.25
68807;BME280;55800;54.272;18.558;2023-02-12T11:41:25;102746.72;;;5.92;72.07
68807;BME280;55800;54.272;18.558;2023-02-12T11:43:58;102750.25;;;5.91;72.23
68807;BME280;55800;54.272;18.558;2023-02-12T11:46:28;102755.59;;;5.94;72.28
68807;BME280;55800;54.272;18.558;2023-02-12T11:48:58;102753.81;;;5.95;72.15
68807;BME280;55800;54.272;18.558;2023-02-12T11:51:29;102755.63;;;5.99;71.72
68807;BME280;55800;54.272;18.558;2023-02-12T11:54:02;102749.47;;;6.03;71.93
68807;BME280;55800;54.272;18.558;2023-02-12T11:56:44;102747.72;;;6.03;71.46
68807;BME280;55800;54.272;18.558;2023-02-12T11:59:30;102746.84;;;6.04;71.54
68807;BME280;55800;54.272;18.558;2023-02-12T12:02:04;102741.63;;;6.10;71.46
68807;BME280;55800;54.272;18.558;2023-02-12T12:04:35;102744.28;;;6.13;71.28
68807;BME280;55800;54.272;18.558;2023-02-12T12:07:12;102755.84;;;6.18;71.03
68807;BME280;55800;54.272;18.558;2023-02-12T12:09:48;102760.28;;;6.19;71.38
68807;BME280;55800;54.272;18.558;2023-02-12T12:12:21;102751.41;;;6.17;71.22
68807;BME280;55800;54.272;18.558;2023-02-12T12:14:56;102744.31;;;6.16;71.37
68807;BME280;55800;54.272;18.558;2023-02-12T12:17:51;102738.84;;;6.01;70.52
68807;BME280;55800;54.272;18.558;2023-02-12T12:20:44;102737.06;;;5.97;71.51
68807;BME280;55800;54.272;18.558;2023-02-12T12:23:17;102721.97;;;5.96;71.08
68807;BME280;55800;54.272;18.558;2023-02-12T12:25:51;102721.91;;;5.90;70.90
68807;BME280;55800;54.272;18.558;2023-02-12T12:28:29;102721.00;;;5.88;71.56
68807;BME280;55800;54.272;18.558;2023-02-12T12:31:07;102718.25;;;5.81;71.02
68807;BME280;55800;54.272;18.558;2023-02-12T12:33:43;102725.28;;;5.77;71.51
68807;BME280;55800;54.272;18.558;2023-02-12T12:36:43;102719.00;;;5.69;71.34
68807;BME280;55800;54.272;18.558;2023-02-12T12:39:27;102716.19;;;5.57;71.72
68807;BME280;55800;54.272;18.558;2023-02-12T12:42:30;102702.88;;;5.51;71.80
68807;BME280;55800;54.272;18.558;2023-02-12T12:45:15;102695.78;;;5.50;72.19
68807;BME280;55800;54.272;18.558;2023-02-12T12:47:58;102691.31;;;5.46;71.85
68807;BME280;55800;54.272;18.558;2023-02-12T12:50:46;102684.19;;;5.40;72.19
68807;BME280;55800;54.272;18.558;2023-02-12T12:53:30;102681.47;;;5.39;72.44
68807;BME280;55800;54.272;18.558;2023-02-12T12:56:19;102677.97;;;5.41;72.32
68807;BME280;55800;54.272;18.558;2023-02-12T12:59:11;102675.25;;;5.37;72.59
68807;BME280;55800;54.272;18.558;2023-02-12T13:05:00;102677.06;;;5.41;72.72
68807;BME280;55800;54.272;18.558;2023-02-12T13:07:49;102669.13;;;5.41;72.59
68807;BME280;55800;54.272;18.558;2023-02-12T13:10:30;102667.34;;;5.40;72.73
68807;BME280;55800;54.272;18.558;2023-02-12T13:13:08;102673.50;;;5.36;72.88
68807;BME280;55800;54.272;18.558;2023-02-12T13:15:47;102679.72;;;5.36;72.85
68807;BME280;55800;54.272;18.558;2023-02-12T13:18:29;102684.97;;;5.33;73.11
68807;BME280;55800;54.272;18.558;2023-02-12T13:21:09;102696.41;;;5.31;73.03
68807;BME280;55800;54.272;18.558;2023-02-12T13:23:45;102698.22;;;5.32;73.31
68807;BME280;55800;54.272;18.558;2023-02-12T13:26:25;102703.50;;;5.32;73.20
68807;BME280;55800;54.272;18.558;2023-02-12T13:29:01;102701.78;;;5.35;73.19
68807;BME280;55800;54.272;18.558;2023-02-12T13:31:42;102708.84;;;5.35;73.09
68807;BME280;55800;54.272;18.558;2023-02-12T13:34:15;102722.09;;;5.33;72.94